createdAt,value
2018-05-17T00:01:08.720Z,98689.89
2018-05-17T00:03:36.126Z,98685.02
2018-05-17T00:06:04.464Z,98681.89
2018-05-17T00:08:31.858Z,98688.41
2018-05-17T00:10:59.266Z,98694.30
2018-05-17T00:13:26.796Z,98686.30
2018-05-17T00:15:54.203Z,98690.67
2018-05-17T00:18:21.596Z,98691.94
2018-05-17T00:20:49.000Z,98687.46
2018-05-17T00:23:17.318Z,98693.88
2018-05-17T00:25:44.727Z,98686.14
2018-05-17T00:28:12.132Z,98685.33
2018-05-17T00:30:39.901Z,98685.17
2018-05-17T00:33:07.297Z,98674.63
2018-05-17T00:35:35.662Z,98671.75
2018-05-17T00:38:03.129Z,98670.51
2018-05-17T00:40:30.543Z,98671.56
2018-05-17T00:42:57.935Z,98669.13
2018-05-17T00:45:25.345Z,98665.27
2018-05-17T00:47:52.744Z,98665.77
2018-05-17T00:50:20.136Z,98661.81
2018-05-17T00:52:59.238Z,98656.38
2018-05-17T00:55:26.630Z,98658.33
2018-05-17T00:57:54.105Z,98664.81
2018-05-17T01:00:21.484Z,98659.67
2018-05-17T01:02:48.880Z,98657.11
2018-05-17T01:05:16.292Z,98657.09
2018-05-17T01:07:43.686Z,98656.61
2018-05-17T01:10:11.108Z,98660.08
2018-05-17T01:12:39.133Z,98651.97
2018-05-17T01:15:07.376Z,98655.30
2018-05-17T01:17:35.568Z,98652.17
2018-05-17T01:20:02.985Z,98645.98
2018-05-17T01:22:30.414Z,98655.41
2018-05-17T01:24:57.823Z,98653.03
2018-05-17T01:27:25.257Z,98647.67
2018-05-17T01:29:52.644Z,98648.36
2018-05-17T01:32:20.048Z,98647.67
2018-05-17T01:34:47.444Z,98646.03
2018-05-17T01:37:26.608Z,98653.48
2018-05-17T01:39:54.144Z,98644.69
2018-05-17T01:42:21.551Z,98649.83
2018-05-17T01:44:48.943Z,98650.38
2018-05-17T01:47:16.355Z,98655.52
2018-05-17T01:49:43.750Z,98647.98
2018-05-17T01:52:11.156Z,98649.30
2018-05-17T01:54:39.273Z,98650.77
2018-05-17T01:57:06.659Z,98649.58
2018-05-17T01:59:34.071Z,98648.28
2018-05-17T02:02:01.484Z,98646.35
2018-05-17T02:04:28.893Z,98643.69
2018-05-17T02:06:56.287Z,98645.66
2018-05-17T02:09:23.693Z,98643.11
2018-05-17T02:11:51.092Z,98642.56
2018-05-17T02:14:18.749Z,98643.90
2018-05-17T02:16:46.153Z,98650.74
2018-05-17T02:19:13.591Z,98656.05
2018-05-17T02:21:41.240Z,98660.65
2018-05-17T02:24:08.648Z,98663.29
2018-05-17T02:26:36.040Z,98659.99
2018-05-17T02:29:03.465Z,98662.93
2018-05-17T02:31:30.854Z,98661.19
2018-05-17T02:33:58.264Z,98664.70
2018-05-17T02:36:25.672Z,98667.31
2018-05-17T02:38:53.091Z,98672.93
2018-05-17T02:41:20.486Z,98671.88
2018-05-17T02:43:47.903Z,98674.37
2018-05-17T02:46:15.292Z,98663.67
2018-05-17T02:48:42.768Z,98673.73
2018-05-17T02:51:10.164Z,98677.13
2018-05-17T02:53:37.564Z,98685.89
2018-05-17T02:56:04.969Z,98686.91
2018-05-17T02:58:32.517Z,98684.81
2018-05-17T03:00:59.921Z,98683.52
2018-05-17T03:03:27.319Z,98690.28
2018-05-17T03:05:54.897Z,98693.88
2018-05-17T03:08:22.401Z,98699.31
2018-05-17T03:10:49.807Z,98695.06
2018-05-17T03:13:17.214Z,98692.33
2018-05-17T03:15:44.633Z,98695.09
2018-05-17T03:18:12.028Z,98697.91
2018-05-17T03:20:39.449Z,98699.77
2018-05-17T03:23:06.842Z,98703.88
2018-05-17T03:25:34.302Z,98712.17
2018-05-17T03:28:01.710Z,98705.86
2018-05-17T03:30:29.117Z,98705.56
2018-05-17T03:32:56.543Z,98705.23
2018-05-17T03:35:24.082Z,98702.59
2018-05-17T03:37:51.487Z,98709.98
2018-05-17T03:40:18.896Z,98713.97
2018-05-17T03:42:46.317Z,98712.14
2018-05-17T03:45:14.408Z,98708.88
2018-05-17T03:47:41.802Z,98706.30
2018-05-17T03:50:09.220Z,98704.23
2018-05-17T03:52:36.624Z,98706.70
2018-05-17T03:55:04.076Z,98703.77
2018-05-17T03:57:31.476Z,98709.78
2018-05-17T03:59:59.138Z,98709.30
2018-05-17T04:02:38.271Z,98705.66
2018-05-17T04:05:17.499Z,98702.17
2018-05-17T04:07:45.479Z,98706.36
2018-05-17T04:10:12.916Z,98702.61
2018-05-17T04:12:43.511Z,98709.51
2018-05-17T04:15:11.005Z,98704.80
2018-05-17T04:17:38.464Z,98710.48
2018-05-17T04:20:05.872Z,98711.67
2018-05-17T04:22:33.327Z,98713.10
2018-05-17T04:25:00.795Z,98717.27
2018-05-17T04:27:28.192Z,98717.39
2018-05-17T04:29:55.600Z,98718.83
2018-05-17T04:32:23.064Z,98717.52
2018-05-17T04:34:50.473Z,98725.34
2018-05-17T04:37:17.872Z,98718.29
2018-05-17T04:39:45.277Z,98721.98
2018-05-17T04:42:12.755Z,98723.34
2018-05-17T04:44:40.150Z,98718.18
2018-05-17T04:47:07.624Z,98725.39
2018-05-17T04:49:35.021Z,98718.90
2018-05-17T04:52:02.410Z,98719.80
2018-05-17T04:54:29.799Z,98728.45
2018-05-17T04:56:57.202Z,98732.33
2018-05-17T04:59:25.728Z,98732.48
2018-05-17T05:01:53.118Z,98734.19
2018-05-17T05:04:20.517Z,98729.73
2018-05-17T05:06:47.950Z,98731.96
2018-05-17T05:09:15.340Z,98739.05
2018-05-17T05:11:42.741Z,98741.91
2018-05-17T05:14:10.138Z,98741.88
2018-05-17T05:16:37.695Z,98739.59
2018-05-17T05:19:05.125Z,98745.05
2018-05-17T05:21:32.527Z,98754.80
2018-05-17T05:23:59.992Z,98751.92
2018-05-17T05:26:27.646Z,98752.26
2018-05-17T05:28:55.046Z,98745.53
2018-05-17T05:31:22.433Z,98741.21
2018-05-17T05:33:49.840Z,98745.08
2018-05-17T05:36:17.342Z,98752.17
2018-05-17T05:38:44.737Z,98754.88
2018-05-17T05:41:12.136Z,98755.41
2018-05-17T05:43:39.540Z,98749.20
2018-05-17T05:46:06.947Z,98732.17
2018-05-17T05:48:34.331Z,98724.78
2018-05-17T05:51:01.770Z,98728.68
2018-05-17T05:53:29.245Z,98724.62
2018-05-17T05:55:56.643Z,98717.98
2018-05-17T05:58:24.059Z,98728.50
2018-05-17T06:00:52.054Z,98728.95
2018-05-17T06:03:19.639Z,98729.59
2018-05-17T06:05:47.038Z,98747.99
2018-05-17T06:08:14.447Z,98748.81
2018-05-17T06:10:41.844Z,98758.66
2018-05-17T06:13:09.245Z,98764.39
2018-05-17T06:15:36.632Z,98772.95
2018-05-17T06:18:04.036Z,98778.08
2018-05-17T06:20:32.025Z,98788.02
2018-05-17T06:22:59.439Z,98791.50
2018-05-17T06:25:26.835Z,98793.54
2018-05-17T06:27:54.276Z,98791.68
2018-05-17T06:30:21.857Z,98787.28
2018-05-17T06:32:49.809Z,98784.45
2018-05-17T06:35:17.200Z,98757.62
2018-05-17T06:37:44.619Z,98752.53
2018-05-17T06:40:12.031Z,98740.45
2018-05-17T06:42:39.427Z,98744.52
2018-05-17T06:45:06.828Z,98747.12
2018-05-17T06:47:34.239Z,98753.13
2018-05-17T06:50:01.636Z,98771.22
2018-05-17T06:52:29.045Z,98790.25
2018-05-17T06:54:56.517Z,98811.48
2018-05-17T06:57:24.203Z,98807.50
2018-05-17T06:59:51.557Z,98802.67
2018-05-17T07:02:18.962Z,98808.18
2018-05-17T07:04:46.482Z,98808.11
2018-05-17T07:07:13.895Z,98808.97
2018-05-17T07:09:41.296Z,98807.11
2018-05-17T07:12:08.701Z,98804.72
2018-05-17T07:14:36.098Z,98810.72
2018-05-17T07:17:03.488Z,98833.42
2018-05-17T07:19:30.886Z,98848.46
2018-05-17T07:21:58.296Z,98836.63
2018-05-17T07:24:25.765Z,98833.77
2018-05-17T07:26:53.159Z,98837.34
2018-05-17T07:29:21.233Z,98849.95
2018-05-17T07:31:48.676Z,98851.06
2018-05-17T07:34:16.089Z,98859.52
2018-05-17T07:36:43.488Z,98855.00
2018-05-17T07:39:11.080Z,98847.23
2018-05-17T07:41:38.490Z,98836.39
2018-05-17T07:44:05.901Z,98830.48
2018-05-17T07:46:33.294Z,98851.05
2018-05-17T07:49:01.288Z,98856.67
2018-05-17T07:51:28.683Z,98860.34
2018-05-17T07:53:56.093Z,98861.15
2018-05-17T07:56:23.479Z,98863.42
2018-05-17T07:58:50.944Z,98858.84
2018-05-17T08:01:18.628Z,98863.00
2018-05-17T08:03:46.033Z,98861.97
2018-05-17T08:06:13.688Z,98867.52
2018-05-17T08:08:41.106Z,98871.02
2018-05-17T08:11:08.504Z,98871.65
2018-05-17T08:13:35.919Z,98875.47
2018-05-17T08:16:03.319Z,98880.42
2018-05-17T08:18:30.752Z,98872.15
2018-05-17T08:20:58.160Z,98881.37
2018-05-17T08:23:25.559Z,98885.91
2018-05-17T08:25:53.127Z,98883.84
2018-05-17T08:28:20.531Z,98888.14
2018-05-17T08:30:47.932Z,98883.82
2018-05-17T08:33:15.393Z,98896.77
2018-05-17T08:35:42.787Z,98897.20
2018-05-17T08:38:10.714Z,98889.95
2018-05-17T08:40:38.184Z,98898.45
2018-05-17T08:43:05.660Z,98896.50
2018-05-17T08:45:33.131Z,98898.43
2018-05-17T08:48:00.469Z,98896.50
2018-05-17T08:50:27.971Z,98898.02
2018-05-17T08:52:55.371Z,98908.29
2018-05-17T08:55:23.652Z,98906.20
2018-05-17T08:57:51.046Z,98895.32
2018-05-17T09:00:18.450Z,98895.95
2018-05-17T09:02:45.998Z,98892.94
2018-05-17T09:05:13.392Z,98895.91
2018-05-17T09:07:40.777Z,98902.50
2018-05-17T09:10:08.209Z,98905.70
2018-05-17T09:12:35.600Z,98912.79
2018-05-17T09:15:03.054Z,98909.98
2018-05-17T09:17:30.442Z,98911.47
2018-05-17T09:19:57.855Z,98914.39
2018-05-17T09:22:25.248Z,98906.06
2018-05-17T09:24:52.735Z,98914.27
2018-05-17T09:27:20.121Z,98920.13
2018-05-17T09:29:47.521Z,98923.58
2018-05-17T09:32:14.954Z,98924.91
2018-05-17T09:34:42.433Z,98922.77
2018-05-17T09:37:09.834Z,98925.20
2018-05-17T09:39:37.215Z,98925.83
2018-05-17T09:42:04.660Z,98927.98
2018-05-17T09:44:32.214Z,98929.03
2018-05-17T09:46:59.672Z,98929.42
2018-05-17T09:49:27.076Z,98925.55
2018-05-17T09:51:55.051Z,98930.84
2018-05-17T09:54:22.452Z,98940.81
2018-05-17T09:56:49.856Z,98935.70
2018-05-17T09:59:17.317Z,98942.56
2018-05-17T10:01:44.741Z,98938.33
2018-05-17T10:04:12.138Z,98935.63
2018-05-17T10:06:39.541Z,98942.37
2018-05-17T10:09:07.263Z,98934.78
2018-05-17T10:11:34.668Z,98935.23
2018-05-17T10:14:02.069Z,98940.20
2018-05-17T10:16:29.477Z,98945.21
2018-05-17T10:18:57.187Z,98948.09
2018-05-17T10:21:24.589Z,98941.89
2018-05-17T10:23:51.975Z,98947.41
2018-05-17T10:26:19.387Z,98942.06
2018-05-17T10:28:46.965Z,98937.53
2018-05-17T10:31:14.370Z,98933.72
2018-05-17T10:33:41.763Z,98940.45
2018-05-17T10:36:09.170Z,98934.14
2018-05-17T10:38:37.472Z,98930.61
2018-05-17T10:41:04.872Z,98927.53
2018-05-17T10:43:32.278Z,98924.86
2018-05-17T10:46:01.013Z,98928.67
2018-05-17T10:48:28.403Z,98929.06
2018-05-17T10:50:56.777Z,98930.31
2018-05-17T10:53:24.176Z,98931.55
2018-05-17T10:55:57.324Z,98933.39
2018-05-17T10:58:24.734Z,98940.02
2018-05-17T11:00:52.838Z,98943.06
2018-05-17T11:03:20.239Z,98942.95
2018-05-17T11:05:47.636Z,98936.59
2018-05-17T11:08:15.248Z,98937.23
2018-05-17T11:10:42.646Z,98941.69
2018-05-17T11:13:10.052Z,98948.92
2018-05-17T11:15:37.505Z,98942.47
2018-05-17T11:18:06.229Z,98949.47
2018-05-17T11:20:33.622Z,98947.94
2018-05-17T11:23:01.045Z,98943.30
2018-05-17T11:25:28.437Z,98945.64
2018-05-17T11:27:55.840Z,98945.26
2018-05-17T11:30:23.245Z,98950.94
2018-05-17T11:32:50.648Z,98949.94
2018-05-17T11:35:18.059Z,98947.38
2018-05-17T11:37:45.448Z,98949.58
2018-05-17T11:40:12.847Z,98946.41
2018-05-17T11:42:40.309Z,98945.30
2018-05-17T11:45:07.727Z,98942.84
2018-05-17T11:47:35.135Z,98945.07
2018-05-17T11:50:02.559Z,98948.45
2018-05-17T11:52:29.920Z,98951.00
2018-05-17T11:54:57.324Z,98942.20
2018-05-17T11:57:24.716Z,98942.68
2018-05-17T11:59:52.129Z,98944.84
2018-05-17T12:02:19.583Z,98937.16
2018-05-17T12:04:46.983Z,98944.95
2018-05-17T12:07:14.434Z,98941.28
2018-05-17T12:09:41.782Z,98945.70
2018-05-17T12:12:09.555Z,98948.78
2018-05-17T12:14:36.955Z,98953.72
2018-05-17T12:17:04.352Z,98951.61
2018-05-17T12:19:31.885Z,98953.72
2018-05-17T12:21:59.779Z,98949.19
2018-05-17T12:24:27.188Z,98955.02
2018-05-17T12:26:54.586Z,98955.33
2018-05-17T12:29:22.116Z,98952.38
2018-05-17T12:31:49.532Z,98956.03
2018-05-17T12:34:16.924Z,98956.48
2018-05-17T12:36:44.317Z,98946.77
2018-05-17T12:39:11.761Z,98954.41
2018-05-17T12:41:39.148Z,98947.73
2018-05-17T12:44:06.551Z,98945.05
2018-05-17T12:46:34.009Z,98950.82
2018-05-17T12:49:01.560Z,98954.69
2018-05-17T12:51:28.956Z,98952.69
2018-05-17T12:53:56.384Z,98948.12
2018-05-17T12:56:23.772Z,98945.42
2018-05-17T18:42:50.252Z,98992.67
2018-05-17T18:45:17.647Z,98997.58
2018-05-17T18:47:45.980Z,98996.11
2018-05-17T18:50:13.512Z,98999.08
2018-05-17T18:52:40.916Z,98991.09
2018-05-17T18:55:08.320Z,99001.36
2018-05-17T18:57:35.878Z,99007.78
2018-05-17T19:00:03.258Z,99010.22
2018-05-17T19:02:30.665Z,99005.03
2018-05-17T19:04:58.054Z,99014.32
2018-05-17T19:07:25.459Z,99013.69
2018-05-17T19:09:52.861Z,99012.97
2018-05-17T19:12:20.271Z,99011.21
2018-05-17T19:14:47.691Z,99012.63
2018-05-17T19:17:15.107Z,99023.62
2018-05-17T19:19:42.496Z,99024.04
2018-05-17T19:22:09.914Z,99021.08
2018-05-17T19:24:37.392Z,99026.95
2018-05-17T19:27:05.556Z,99029.95
2018-05-17T19:29:32.939Z,99038.66
2018-05-17T19:32:00.438Z,99034.20
2018-05-17T19:34:31.796Z,99035.00
2018-05-17T19:36:59.320Z,99037.40
2018-05-17T19:39:27.588Z,99039.53
2018-05-17T19:41:55.003Z,99046.84
2018-05-17T19:44:22.413Z,99043.23
2018-05-17T19:46:49.907Z,99048.97
2018-05-17T19:49:17.315Z,99051.75
2018-05-17T19:51:45.150Z,99059.36
2018-05-17T19:54:12.604Z,99059.08
2018-05-17T19:56:40.005Z,99069.17
2018-05-17T19:59:07.403Z,99067.62
2018-05-17T20:01:34.941Z,99067.91
2018-05-17T20:04:02.394Z,99067.30
2018-05-17T20:06:29.788Z,99065.53
2018-05-17T20:08:57.192Z,99072.02
2018-05-17T20:11:24.637Z,99063.93
2018-05-17T20:13:52.004Z,99060.31
2018-05-17T20:16:20.085Z,99065.29
2018-05-17T20:18:47.621Z,99069.09
2018-05-17T20:21:14.927Z,99069.88
2018-05-17T20:23:42.333Z,99068.09
2018-05-17T20:26:09.738Z,99070.28
2018-05-17T20:28:37.360Z,99068.34
2018-05-17T20:31:04.756Z,99075.23
2018-05-17T20:33:32.152Z,99077.83
2018-05-17T20:35:59.611Z,99081.66
2018-05-17T20:38:27.308Z,99081.88
2018-05-17T20:40:54.699Z,99078.48
2018-05-17T20:43:22.084Z,99076.78
2018-05-17T20:45:50.480Z,99078.94
2018-05-17T20:48:17.888Z,99081.05
2018-05-17T20:50:45.294Z,99082.85
2018-05-17T20:53:12.680Z,99079.63
2018-05-17T20:55:40.092Z,99082.22
2018-05-17T20:58:07.495Z,99080.78
2018-05-17T21:00:34.920Z,99079.60
2018-05-17T21:03:02.846Z,99077.61
2018-05-17T21:05:30.244Z,99074.87
2018-05-17T21:07:57.624Z,99078.59
2018-05-17T21:10:25.890Z,99084.25
2018-05-17T21:12:53.350Z,99082.05
2018-05-17T21:15:21.029Z,99083.74
2018-05-17T21:17:48.428Z,99079.71
2018-05-17T21:20:15.834Z,99082.88
2018-05-17T21:22:43.228Z,99085.98
2018-05-17T21:25:10.626Z,99082.98
2018-05-17T21:27:38.203Z,99092.36
2018-05-17T21:30:05.628Z,99089.43
2018-05-17T21:32:33.011Z,99096.55
2018-05-17T21:35:00.554Z,99092.25
2018-05-17T21:37:27.927Z,99088.66
2018-05-17T21:39:55.328Z,99087.78
2018-05-17T21:42:22.717Z,99095.78
2018-05-17T21:44:50.118Z,99090.38
2018-05-17T21:47:17.509Z,99097.23
2018-05-17T21:49:44.908Z,99095.17
2018-05-17T21:52:12.314Z,99096.53
2018-05-17T21:54:39.761Z,99093.63
2018-05-17T21:57:07.168Z,99101.33
2018-05-17T22:02:38.592Z,99093.61
2018-05-17T22:05:06.864Z,99098.55
2018-05-17T22:07:34.286Z,99097.91
2018-05-17T22:10:01.648Z,99092.56
2018-05-17T22:12:29.050Z,99092.53
2018-05-17T22:14:56.445Z,99094.45
2018-05-17T22:17:23.860Z,99098.14
2018-05-17T22:19:51.284Z,99097.55
2018-05-17T22:22:18.688Z,99098.91
2018-05-17T22:24:46.093Z,99102.11
2018-05-17T22:27:13.507Z,99095.70
2018-05-17T22:29:40.904Z,99094.30
2018-05-17T22:32:08.314Z,99100.47
2018-05-17T22:34:35.787Z,99099.97
2018-05-17T22:37:03.179Z,99099.75
2018-05-17T22:39:30.572Z,99101.70
2018-05-17T22:41:58.096Z,99093.13
2018-05-17T22:44:25.504Z,99100.73
2018-05-17T22:46:53.577Z,99090.67
2018-05-17T22:49:21.134Z,99093.22
2018-05-17T22:51:48.583Z,99095.50
2018-05-17T22:54:15.908Z,99092.80
2018-05-17T22:56:55.179Z,99095.34
2018-05-17T22:59:22.581Z,99092.73
2018-05-17T23:01:50.101Z,99092.46
2018-05-17T23:04:17.540Z,99084.64
2018-05-17T23:06:44.939Z,99091.30
2018-05-17T23:09:12.328Z,99091.53
2018-05-17T23:11:39.732Z,99088.92
2018-05-17T23:14:07.136Z,99093.82
2018-05-17T23:16:34.548Z,99094.05
2018-05-17T23:19:02.217Z,99092.27
2018-05-17T23:21:29.613Z,99088.33
2018-05-17T23:23:57.007Z,99092.58
2018-05-17T23:26:24.526Z,99093.05
2018-05-17T23:28:51.930Z,99088.22
2018-05-17T23:31:19.320Z,99090.17
2018-05-17T23:33:46.736Z,99093.09
2018-05-17T23:36:14.202Z,99089.55
2018-05-17T23:38:41.599Z,99092.17
2018-05-17T23:41:20.714Z,99088.47
2018-05-17T23:43:48.102Z,99080.50
2018-05-17T23:46:16.013Z,99085.50
2018-05-17T23:48:43.411Z,99081.34
2018-05-17T23:51:10.808Z,99085.38
2018-05-17T23:53:38.217Z,99090.34
2018-05-17T23:56:05.643Z,99095.06
2018-05-17T23:58:33.021Z,99089.34
